createdAt,value
2017-04-04T00:00:04.390Z,9.59
2017-04-04T00:00:08.699Z,9.59
2017-04-04T00:00:13.013Z,9.59
2017-04-04T00:00:17.435Z,9.59
2017-04-04T00:00:21.861Z,9.59
2017-04-04T00:00:26.290Z,9.58
2017-04-04T00:00:30.714Z,9.59
2017-04-04T00:00:35.133Z,9.58
2017-04-04T00:00:39.560Z,9.58
2017-04-04T00:00:43.987Z,9.58
2017-04-04T00:00:48.424Z,9.59
2017-04-04T00:00:52.866Z,9.59
2017-04-04T00:00:57.287Z,9.59
2017-04-04T00:01:01.956Z,9.59
2017-04-04T00:01:06.380Z,9.59
2017-04-04T00:01:10.808Z,9.58
2017-04-04T00:01:15.116Z,9.59
2017-04-04T00:01:19.425Z,9.59
2017-04-04T00:01:23.848Z,9.6
2017-04-04T00:01:28.270Z,9.59
2017-04-04T00:01:32.705Z,9.59
2017-04-04T00:01:37.131Z,9.59
2017-04-04T00:01:41.442Z,9.6
2017-04-04T00:01:45.870Z,9.59
2017-04-04T00:01:50.216Z,9.59
2017-04-04T00:01:54.540Z,9.59
2017-04-04T00:01:58.963Z,9.59
2017-04-04T00:02:03.329Z,9.59
2017-04-04T00:02:07.645Z,9.6
2017-04-04T00:02:11.952Z,9.6
2017-04-04T00:02:16.268Z,9.59
2017-04-04T00:02:20.582Z,9.59
2017-04-04T00:02:25.015Z,9.6
2017-04-04T00:02:29.437Z,9.59
2017-04-04T00:02:33.858Z,9.59
2017-04-04T00:02:38.283Z,9.59
2017-04-04T00:02:42.707Z,9.59
2017-04-04T00:02:47.022Z,9.59
2017-04-04T00:02:51.206Z,9.6
2017-04-04T00:02:55.634Z,9.6
2017-04-04T00:03:00.060Z,9.6
2017-04-04T00:03:04.484Z,9.59
2017-04-04T00:03:08.914Z,9.59
2017-04-04T00:03:13.350Z,9.59
2017-04-04T00:03:17.545Z,9.6
2017-04-04T00:03:21.972Z,9.59
2017-04-04T00:03:26.281Z,9.6
2017-04-04T00:03:30.706Z,9.59
2017-04-04T00:03:35.133Z,9.6
2017-04-04T00:03:39.562Z,9.59
2017-04-04T00:03:43.991Z,9.59
2017-04-04T00:03:48.301Z,9.59
2017-04-04T00:03:52.732Z,9.59
2017-04-04T00:03:57.159Z,9.59
2017-04-04T00:04:01.734Z,9.59
2017-04-04T00:04:06.159Z,9.59
2017-04-04T00:04:10.463Z,9.59
2017-04-04T00:04:14.770Z,9.6
2017-04-04T00:04:19.205Z,9.59
2017-04-04T00:04:23.626Z,9.6
2017-04-04T00:04:28.044Z,9.59
2017-04-04T00:04:32.476Z,9.59
2017-04-04T00:04:36.947Z,9.59
2017-04-04T00:04:41.265Z,9.59
2017-04-04T00:04:45.691Z,9.59
2017-04-04T00:04:50.121Z,9.59
2017-04-04T00:04:54.551Z,9.59
2017-04-04T00:04:58.972Z,9.59
2017-04-04T00:05:03.542Z,9.6
2017-04-04T00:05:07.966Z,9.59
2017-04-04T00:05:12.401Z,9.58
2017-04-04T00:05:16.830Z,9.6
2017-04-04T00:05:21.303Z,9.6
2017-04-04T00:05:25.496Z,9.59
2017-04-04T00:05:29.685Z,9.59
2017-04-04T00:05:34.117Z,9.59
2017-04-04T00:05:38.428Z,9.58
2017-04-04T00:05:42.740Z,9.59
2017-04-04T00:05:46.947Z,9.59
2017-04-04T00:05:51.265Z,9.59
2017-04-04T00:05:55.721Z,9.59
2017-04-04T00:06:00.151Z,9.59
2017-04-04T00:06:04.479Z,9.59
2017-04-04T00:06:08.678Z,9.59
2017-04-04T00:06:12.999Z,9.59
2017-04-04T00:06:17.425Z,9.59
2017-04-04T00:06:21.732Z,9.59
2017-04-04T00:06:26.180Z,9.59
2017-04-04T00:06:30.619Z,9.58
2017-04-04T00:06:34.939Z,9.58
2017-04-04T00:06:39.251Z,9.59
2017-04-04T00:06:43.569Z,9.58
2017-04-04T00:06:47.652Z,9.59
2017-04-04T00:06:51.960Z,9.58
2017-04-04T00:06:56.391Z,9.58
2017-04-04T00:07:00.714Z,9.59
2017-04-04T00:07:05.259Z,9.58
2017-04-04T00:07:09.691Z,9.58
2017-04-04T00:07:14.115Z,9.58
2017-04-04T00:07:18.432Z,9.58
2017-04-04T00:07:22.520Z,9.58
2017-04-04T00:07:26.831Z,9.58
2017-04-04T00:07:31.146Z,9.58
2017-04-04T00:07:35.587Z,9.58
2017-04-04T00:07:39.664Z,9.58
2017-04-04T00:07:43.980Z,9.58
2017-04-04T00:07:48.411Z,9.57
2017-04-04T00:07:52.734Z,9.57
2017-04-04T00:07:57.160Z,9.58
2017-04-04T00:08:01.525Z,9.58
2017-04-04T00:08:06.068Z,9.57
2017-04-04T00:08:10.500Z,9.58
2017-04-04T00:08:14.931Z,9.58
2017-04-04T00:08:19.252Z,9.57
2017-04-04T00:08:23.677Z,9.57
2017-04-04T00:08:28.105Z,9.58
2017-04-04T00:08:32.463Z,9.58
2017-04-04T00:08:36.663Z,9.57
2017-04-04T00:08:40.864Z,9.58
2017-04-04T00:08:45.169Z,9.58
2017-04-04T00:08:49.364Z,9.57
2017-04-04T00:08:53.799Z,9.57
2017-04-04T00:08:58.106Z,9.56
2017-04-04T00:09:02.545Z,9.58
2017-04-04T00:09:06.983Z,9.57
2017-04-04T00:09:11.454Z,9.55
2017-04-04T00:09:15.769Z,9.56
2017-04-04T00:09:20.196Z,9.56
2017-04-04T00:09:24.519Z,9.56
2017-04-04T00:09:28.955Z,9.56
2017-04-04T00:09:33.260Z,9.58
2017-04-04T00:09:37.684Z,9.56
2017-04-04T00:09:42.121Z,9.57
2017-04-04T00:09:46.354Z,9.55
2017-04-04T00:09:50.554Z,9.56
2017-04-04T00:09:54.860Z,9.56
2017-04-04T00:09:59.061Z,9.55
2017-04-04T00:10:03.532Z,9.55
2017-04-04T00:10:07.971Z,9.55
2017-04-04T00:10:12.415Z,9.55
2017-04-04T00:10:16.610Z,9.55
2017-04-04T00:10:20.928Z,9.55
2017-04-04T00:10:25.358Z,9.55
2017-04-04T00:10:29.556Z,9.55
2017-04-04T00:10:33.635Z,9.55
2017-04-04T00:10:37.838Z,9.55
2017-04-04T00:10:42.268Z,9.55
2017-04-04T00:10:46.592Z,9.54
2017-04-04T00:10:50.794Z,9.54
2017-04-04T00:10:55.106Z,9.54
2017-04-04T00:10:59.419Z,9.54
2017-04-04T00:11:03.614Z,9.54
2017-04-04T00:11:08.093Z,9.55
2017-04-04T00:11:12.179Z,9.54
2017-04-04T00:11:16.605Z,9.54
2017-04-04T00:11:20.925Z,9.54
2017-04-04T00:11:25.350Z,9.54
2017-04-04T00:11:29.779Z,9.54
2017-04-04T00:11:34.088Z,9.54
2017-04-04T00:11:38.514Z,9.54
2017-04-04T00:11:42.827Z,9.54
2017-04-04T00:11:47.262Z,9.53
2017-04-04T00:11:51.727Z,9.54
2017-04-04T00:11:56.149Z,9.53
2017-04-04T00:12:00.574Z,9.53
2017-04-04T00:12:05.000Z,9.53
2017-04-04T00:12:09.472Z,9.52
2017-04-04T00:12:13.894Z,9.53
2017-04-04T00:12:18.319Z,9.52
2017-04-04T00:12:22.629Z,9.53
2017-04-04T00:12:26.944Z,9.52
2017-04-04T00:12:31.369Z,9.51
2017-04-04T00:12:35.678Z,9.51
2017-04-04T00:12:40.149Z,9.51
2017-04-04T00:12:44.455Z,9.52
2017-04-04T00:12:48.889Z,9.51
2017-04-04T00:12:53.316Z,9.51
2017-04-04T00:12:57.739Z,9.52
2017-04-04T00:13:02.172Z,9.52
2017-04-04T00:13:06.484Z,9.52
2017-04-04T00:13:10.810Z,9.51
2017-04-04T00:13:15.116Z,9.5
2017-04-04T00:13:19.541Z,9.51
2017-04-04T00:13:23.966Z,9.51
2017-04-04T00:13:28.391Z,9.52
2017-04-04T00:13:32.826Z,9.51
2017-04-04T00:13:37.260Z,9.51
2017-04-04T00:13:41.691Z,9.52
2017-04-04T00:13:46.114Z,9.52
2017-04-04T00:13:50.541Z,9.52
2017-04-04T00:13:54.993Z,9.52
2017-04-04T00:13:59.422Z,9.52
2017-04-04T00:14:03.843Z,9.52
2017-04-04T00:14:08.031Z,9.52
2017-04-04T00:14:12.462Z,9.52
2017-04-04T00:14:16.884Z,9.52
2017-04-04T00:14:21.302Z,9.52
2017-04-04T00:14:25.491Z,9.53
2017-04-04T00:14:29.916Z,9.53
2017-04-04T00:14:34.228Z,9.53
2017-04-04T00:14:38.656Z,9.52
2017-04-04T00:14:42.965Z,9.53
2017-04-04T00:14:47.283Z,9.53
2017-04-04T00:14:51.757Z,9.53
2017-04-04T00:14:56.066Z,9.53
2017-04-04T00:15:00.492Z,9.54
2017-04-04T00:15:04.898Z,9.53
2017-04-04T00:15:09.247Z,9.53
2017-04-04T00:15:13.670Z,9.53
2017-04-04T00:15:17.857Z,9.54
2017-04-04T00:15:22.168Z,9.54
2017-04-04T00:15:26.645Z,9.54
2017-04-04T00:15:30.954Z,9.54
2017-04-04T00:15:35.142Z,9.55
2017-04-04T00:15:39.574Z,9.55
2017-04-04T00:15:44.001Z,9.55
2017-04-04T00:15:48.419Z,9.54
2017-04-04T00:15:52.745Z,9.55
2017-04-04T00:15:57.207Z,9.55
2017-04-04T00:16:01.634Z,9.55
2017-04-04T00:16:06.310Z,9.55
2017-04-04T00:16:10.388Z,9.55
2017-04-04T00:16:14.811Z,9.55
2017-04-04T00:16:19.119Z,9.56
2017-04-04T00:16:23.548Z,9.56
2017-04-04T00:16:27.857Z,9.56
2017-04-04T00:16:32.329Z,9.56
2017-04-04T00:16:36.401Z,9.57
2017-04-04T00:16:40.708Z,9.56
2017-04-04T00:16:45.070Z,9.57
2017-04-04T00:16:49.493Z,9.57
2017-04-04T00:16:53.918Z,9.57
2017-04-04T00:16:58.380Z,9.58
2017-04-04T00:17:02.820Z,9.58
2017-04-04T00:17:07.128Z,9.58
2017-04-04T00:17:11.552Z,9.57
2017-04-04T00:17:15.981Z,9.58
2017-04-04T00:17:20.406Z,9.58
2017-04-04T00:17:24.599Z,9.58
2017-04-04T00:17:29.026Z,9.58
2017-04-04T00:17:33.455Z,9.59
2017-04-04T00:17:37.879Z,9.59
2017-04-04T00:17:42.302Z,9.59
2017-04-04T00:17:46.721Z,9.59
2017-04-04T00:17:51.149Z,9.59
2017-04-04T00:17:55.456Z,9.59
2017-04-04T00:17:59.885Z,9.59
2017-04-04T00:18:04.412Z,9.6
2017-04-04T00:18:08.734Z,9.59
2017-04-04T00:18:13.198Z,9.59
2017-04-04T00:18:17.502Z,9.6
2017-04-04T00:18:21.581Z,9.59
2017-04-04T00:18:25.769Z,9.59
2017-04-04T00:18:30.071Z,9.6
2017-04-04T00:18:34.382Z,9.6
2017-04-04T00:18:38.816Z,9.6
2017-04-04T00:18:43.241Z,9.6
2017-04-04T00:18:47.661Z,9.6
2017-04-04T00:18:52.104Z,9.6
2017-04-04T00:18:56.457Z,9.6
2017-04-04T00:19:00.885Z,9.6
2017-04-04T00:19:05.560Z,9.6
2017-04-04T00:19:09.865Z,9.6
2017-04-04T00:19:14.331Z,9.61
2017-04-04T00:19:18.517Z,9.6
2017-04-04T00:19:22.943Z,9.61
2017-04-04T00:19:27.376Z,9.6
2017-04-04T00:19:31.682Z,9.61
2017-04-04T00:19:36.101Z,9.61
2017-04-04T00:19:40.527Z,9.61
2017-04-04T00:19:44.956Z,9.6
2017-04-04T00:19:49.389Z,9.61
2017-04-04T00:19:53.820Z,9.61
2017-04-04T00:19:58.125Z,9.6
2017-04-04T00:20:02.599Z,9.6
2017-04-04T00:20:06.913Z,9.62
2017-04-04T00:20:11.101Z,9.61
2017-04-04T00:20:15.531Z,9.61
2017-04-04T00:20:19.964Z,9.61
2017-04-04T00:20:24.390Z,9.62
2017-04-04T00:20:28.816Z,9.62
2017-04-04T00:20:33.256Z,9.62
2017-04-04T00:20:37.687Z,9.62
2017-04-04T00:20:42.116Z,9.63
2017-04-04T00:20:46.418Z,9.62
2017-04-04T00:20:50.844Z,9.63
2017-04-04T00:20:55.272Z,9.62
2017-04-04T00:20:59.699Z,9.63
2017-04-04T00:21:04.263Z,9.63
2017-04-04T00:21:08.690Z,9.62
2017-04-04T00:21:13.004Z,9.63
2017-04-04T00:21:17.240Z,9.63
2017-04-04T00:21:21.662Z,9.63
2017-04-04T00:21:26.091Z,9.62
2017-04-04T00:21:30.562Z,9.63
2017-04-04T00:21:34.993Z,9.63
2017-04-04T00:21:39.417Z,9.63
2017-04-04T00:21:43.739Z,9.64
2017-04-04T00:21:48.203Z,9.63
2017-04-04T00:21:52.625Z,9.63
2017-04-04T00:21:57.049Z,9.64
2017-04-04T00:22:01.484Z,9.63
2017-04-04T00:22:05.796Z,9.64
2017-04-04T00:22:10.101Z,9.64
2017-04-04T00:22:14.527Z,9.64
2017-04-04T00:22:18.721Z,9.64
2017-04-04T00:22:23.151Z,9.64
2017-04-04T00:22:27.578Z,9.64
2017-04-04T00:22:31.829Z,9.64
2017-04-04T00:22:36.250Z,9.64
2017-04-04T00:22:40.675Z,9.65
2017-04-04T00:22:45.135Z,9.65
2017-04-04T00:22:49.558Z,9.64
2017-04-04T00:22:53.868Z,9.64
2017-04-04T00:22:58.293Z,9.65
2017-04-04T00:23:03.070Z,9.65
2017-04-04T00:23:07.374Z,9.66
2017-04-04T00:23:11.801Z,9.65
2017-04-04T00:23:16.110Z,9.65
2017-04-04T00:23:20.533Z,9.65
2017-04-04T00:23:24.960Z,9.65
2017-04-04T00:23:29.380Z,9.66
2017-04-04T00:23:33.687Z,9.65
2017-04-04T00:23:38.163Z,9.66
2017-04-04T00:23:42.589Z,9.65
2017-04-04T00:23:47.018Z,9.66
2017-04-04T00:23:51.376Z,9.66
2017-04-04T00:23:55.575Z,9.66
2017-04-04T00:24:00.013Z,9.66
2017-04-04T00:24:04.448Z,9.66
2017-04-04T00:24:08.867Z,9.67
2017-04-04T00:24:13.053Z,9.66
2017-04-04T00:24:17.483Z,9.66
2017-04-04T00:24:21.904Z,9.66
2017-04-04T00:24:26.332Z,9.66
2017-04-04T00:24:30.758Z,9.66
2017-04-04T00:24:35.185Z,9.66
2017-04-04T00:24:39.609Z,9.67
2017-04-04T00:24:44.035Z,9.67
2017-04-04T00:24:48.459Z,9.68
2017-04-04T00:24:52.896Z,9.67
2017-04-04T00:24:57.360Z,9.67
2017-04-04T00:25:01.981Z,9.67
2017-04-04T00:25:06.429Z,9.68
2017-04-04T00:25:10.859Z,9.66
2017-04-04T00:25:15.165Z,9.67
2017-04-04T00:25:19.478Z,9.67
2017-04-04T00:25:23.904Z,9.67
2017-04-04T00:25:28.336Z,9.67
2017-04-04T00:25:32.764Z,9.68
2017-04-04T00:25:37.199Z,9.68
2017-04-04T00:25:41.626Z,9.67
2017-04-04T00:25:46.051Z,9.67
2017-04-04T00:25:50.357Z,9.67
2017-04-04T00:25:54.791Z,9.67
2017-04-04T00:25:59.219Z,9.67
2017-04-04T00:26:03.644Z,9.68
2017-04-04T00:26:07.728Z,9.68
2017-04-04T00:26:11.929Z,9.67
2017-04-04T00:26:16.231Z,9.68
2017-04-04T00:26:20.423Z,9.68
2017-04-04T00:26:24.891Z,9.67
2017-04-04T00:26:29.319Z,9.67
2017-04-04T00:26:33.630Z,9.67
2017-04-04T00:26:38.053Z,9.67
2017-04-04T00:26:42.473Z,9.68
2017-04-04T00:26:46.906Z,9.67
2017-04-04T00:26:51.328Z,9.67
2017-04-04T00:26:55.751Z,9.67
2017-04-04T00:27:00.176Z,9.67
2017-04-04T00:27:04.639Z,9.67
2017-04-04T00:27:08.945Z,9.67
2017-04-04T00:27:13.366Z,9.67
2017-04-04T00:27:17.792Z,9.67
2017-04-04T00:27:22.220Z,9.68
2017-04-04T00:27:26.530Z,9.68
2017-04-04T00:27:30.835Z,9.67
2017-04-04T00:27:35.148Z,9.68
2017-04-04T00:27:39.577Z,9.68
2017-04-04T00:27:43.999Z,9.68
2017-04-04T00:27:48.431Z,9.68
2017-04-04T00:27:52.855Z,9.68
2017-04-04T00:27:57.156Z,9.67
2017-04-04T00:28:01.465Z,9.68
2017-04-04T00:28:05.910Z,9.67
2017-04-04T00:28:10.220Z,9.67
2017-04-04T00:28:14.523Z,9.67
2017-04-04T00:28:18.831Z,9.67
2017-04-04T00:28:23.148Z,9.68
2017-04-04T00:28:27.451Z,9.68
2017-04-04T00:28:31.870Z,9.67
2017-04-04T00:28:36.296Z,9.68
2017-04-04T00:28:40.598Z,9.68
2017-04-04T00:28:45.024Z,9.69
2017-04-04T00:28:49.503Z,9.68
2017-04-04T00:28:53.929Z,9.68
2017-04-04T00:28:58.351Z,9.69
2017-04-04T00:29:02.789Z,9.69
2017-04-04T00:29:07.258Z,9.69
2017-04-04T00:29:11.565Z,9.69
2017-04-04T00:29:15.873Z,9.69
2017-04-04T00:29:20.295Z,9.69
2017-04-04T00:29:24.731Z,9.7
2017-04-04T00:29:29.036Z,9.69
2017-04-04T00:29:33.347Z,9.69
2017-04-04T00:29:37.793Z,9.69
2017-04-04T00:29:42.227Z,9.69
2017-04-04T00:29:46.650Z,9.69
2017-04-04T00:29:51.083Z,9.69
2017-04-04T00:29:55.388Z,9.69
2017-04-04T00:29:59.688Z,9.69
2017-04-04T00:30:04.369Z,9.69
2017-04-04T00:30:08.689Z,9.69
2017-04-04T00:30:13.114Z,9.7
2017-04-04T00:30:17.418Z,9.7
2017-04-04T00:30:21.850Z,9.7
2017-04-04T00:30:26.293Z,9.69
2017-04-04T00:30:30.712Z,9.69
2017-04-04T00:30:35.136Z,9.7
2017-04-04T00:30:39.568Z,9.7
2017-04-04T00:30:44.008Z,9.69
2017-04-04T00:30:48.435Z,9.7
2017-04-04T00:30:52.867Z,9.71
2017-04-04T00:30:57.061Z,9.7
2017-04-04T00:31:01.486Z,9.7
2017-04-04T00:31:06.097Z,9.69
2017-04-04T00:31:10.525Z,9.69
2017-04-04T00:31:14.837Z,9.7
2017-04-04T00:31:19.260Z,9.71
2017-04-04T00:31:23.565Z,9.7
2017-04-04T00:31:27.879Z,9.69
2017-04-04T00:31:32.307Z,9.7
2017-04-04T00:31:36.730Z,9.7
2017-04-04T00:31:40.934Z,9.71
2017-04-04T00:31:45.408Z,9.71
2017-04-04T00:31:49.713Z,9.7
2017-04-04T00:31:53.919Z,9.71
2017-04-04T00:31:58.350Z,9.69
2017-04-04T00:32:02.925Z,9.7
2017-04-04T00:32:07.227Z,9.7
2017-04-04T00:32:11.651Z,9.69
2017-04-04T00:32:16.077Z,9.7
2017-04-04T00:32:20.504Z,9.71
2017-04-04T00:32:24.812Z,9.71
2017-04-04T00:32:29.241Z,9.7
2017-04-04T00:32:33.554Z,9.7
2017-04-04T00:32:37.978Z,9.7
2017-04-04T00:32:42.403Z,9.7
2017-04-04T00:32:46.712Z,9.7
2017-04-04T00:32:51.183Z,9.7
2017-04-04T00:32:55.611Z,9.69
2017-04-04T00:33:00.033Z,9.7
2017-04-04T00:33:04.662Z,9.69
2017-04-04T00:33:08.970Z,9.69
2017-04-04T00:33:13.391Z,9.7
2017-04-04T00:33:17.825Z,9.69
2017-04-04T00:33:22.138Z,9.7
2017-04-04T00:33:26.564Z,9.69
2017-04-04T00:33:30.988Z,9.69
2017-04-04T00:33:35.410Z,9.7
2017-04-04T00:33:39.831Z,9.69
2017-04-04T00:33:44.142Z,9.7
2017-04-04T00:33:48.502Z,9.7
2017-04-04T00:33:52.939Z,9.69
2017-04-04T00:33:57.359Z,9.69
2017-04-04T00:34:01.784Z,9.69
2017-04-04T00:34:06.212Z,9.69
2017-04-04T00:34:10.516Z,9.69
2017-04-04T00:34:14.824Z,9.7
2017-04-04T00:34:19.268Z,9.69
2017-04-04T00:34:23.572Z,9.69
2017-04-04T00:34:27.883Z,9.68
2017-04-04T00:34:32.308Z,9.69
2017-04-04T00:34:36.728Z,9.68
2017-04-04T00:34:41.147Z,9.68
2017-04-04T00:34:45.457Z,9.68
2017-04-04T00:34:49.646Z,9.68
2017-04-04T00:34:54.074Z,9.68
2017-04-04T00:34:58.495Z,9.68
2017-04-04T00:35:02.918Z,9.68
2017-04-04T00:35:07.346Z,9.68
2017-04-04T00:35:11.775Z,9.67
2017-04-04T00:35:15.963Z,9.68
2017-04-04T00:35:20.160Z,9.67
2017-04-04T00:35:24.470Z,9.68
2017-04-04T00:35:28.779Z,9.67
2017-04-04T00:35:33.209Z,9.66
2017-04-04T00:35:37.633Z,9.67
2017-04-04T00:35:41.829Z,9.67
2017-04-04T00:35:46.145Z,9.67
2017-04-04T00:35:50.588Z,9.67
2017-04-04T00:35:55.025Z,9.67
2017-04-04T00:35:59.452Z,9.67
2017-04-04T00:36:03.974Z,9.67
2017-04-04T00:36:08.295Z,9.66
2017-04-04T00:36:12.604Z,9.66
2017-04-04T00:36:17.025Z,9.66
2017-04-04T00:36:21.465Z,9.65
2017-04-04T00:36:25.779Z,9.65
2017-04-04T00:36:30.088Z,9.65
2017-04-04T00:36:34.514Z,9.65
2017-04-04T00:36:38.828Z,9.65
2017-04-04T00:36:43.137Z,9.65
2017-04-04T00:36:47.561Z,9.65
2017-04-04T00:36:51.871Z,9.64
2017-04-04T00:36:56.294Z,9.64
2017-04-04T00:37:00.716Z,9.64
2017-04-04T00:37:05.439Z,9.64
2017-04-04T00:37:09.753Z,9.64
2017-04-04T00:37:14.180Z,9.65
2017-04-04T00:37:18.371Z,9.63
2017-04-04T00:37:22.680Z,9.63
2017-04-04T00:37:27.109Z,9.63
2017-04-04T00:37:31.416Z,9.64
2017-04-04T00:37:35.840Z,9.63
2017-04-04T00:37:40.033Z,9.62
2017-04-04T00:37:44.339Z,9.62
2017-04-04T00:37:48.762Z,9.62
2017-04-04T00:37:53.184Z,9.63
2017-04-04T00:37:57.616Z,9.62
2017-04-04T00:38:02.391Z,9.62
2017-04-04T00:38:06.697Z,9.62
2017-04-04T00:38:11.135Z,9.62
2017-04-04T00:38:15.482Z,9.62
2017-04-04T00:38:19.908Z,9.62
2017-04-04T00:38:24.212Z,9.62
2017-04-04T00:38:28.634Z,9.62
2017-04-04T00:38:33.058Z,9.6
2017-04-04T00:38:37.362Z,9.6
2017-04-04T00:38:41.787Z,9.61
2017-04-04T00:38:46.103Z,9.6
2017-04-04T00:38:50.406Z,9.6
2017-04-04T00:38:54.709Z,9.59
2017-04-04T00:38:59.141Z,9.6
2017-04-04T00:39:03.817Z,9.59
2017-04-04T00:39:08.246Z,9.59
2017-04-04T00:39:12.667Z,9.59
2017-04-04T00:39:17.015Z,9.58
2017-04-04T00:39:21.443Z,9.58
2017-04-04T00:39:25.877Z,9.58
2017-04-04T00:39:30.181Z,9.58
2017-04-04T00:39:34.496Z,9.57
2017-04-04T00:39:38.806Z,9.58
2017-04-04T00:39:43.227Z,9.57
2017-04-04T00:39:47.652Z,9.58
2017-04-04T00:39:52.096Z,9.57
2017-04-04T00:39:56.526Z,9.56
2017-04-04T00:40:00.956Z,9.55
2017-04-04T00:40:05.464Z,9.56
2017-04-04T00:40:09.773Z,9.56
2017-04-04T00:40:14.080Z,9.55
2017-04-04T00:40:18.393Z,9.56
2017-04-04T00:40:22.698Z,9.55
2017-04-04T00:40:27.008Z,9.55
2017-04-04T00:40:31.436Z,9.54
2017-04-04T00:40:35.860Z,9.55
2017-04-04T00:40:40.285Z,9.54
2017-04-04T00:40:44.714Z,9.54
2017-04-04T00:40:49.189Z,9.53
2017-04-04T00:40:53.622Z,9.54
2017-04-04T00:40:58.046Z,9.53
2017-04-04T00:41:02.362Z,9.53
2017-04-04T00:41:06.674Z,9.53
2017-04-04T00:41:11.096Z,9.52
2017-04-04T00:41:15.412Z,9.52
2017-04-04T00:41:19.724Z,9.51
2017-04-04T00:41:24.149Z,9.52
2017-04-04T00:41:28.577Z,9.51
2017-04-04T00:41:32.892Z,9.51
2017-04-04T00:41:37.367Z,9.51
2017-04-04T00:41:41.791Z,9.5
2017-04-04T00:41:46.210Z,9.5
2017-04-04T00:41:50.519Z,9.5
2017-04-04T00:41:54.889Z,9.5
2017-04-04T00:41:59.197Z,9.5
2017-04-04T00:42:03.928Z,9.5
2017-04-04T00:42:08.367Z,9.5
2017-04-04T00:42:12.796Z,9.49
2017-04-04T00:42:17.105Z,9.49
2017-04-04T00:42:21.341Z,9.48
2017-04-04T00:42:25.768Z,9.48
2017-04-04T00:42:30.077Z,9.48
2017-04-04T00:42:34.310Z,9.48
2017-04-04T00:42:38.740Z,9.47
2017-04-04T00:42:43.168Z,9.47
2017-04-04T00:42:47.599Z,9.47
2017-04-04T00:42:52.040Z,9.47
2017-04-04T00:42:56.348Z,9.46
2017-04-04T00:43:00.773Z,9.46
2017-04-04T00:43:05.446Z,9.46
2017-04-04T00:43:09.871Z,9.46
2017-04-04T00:43:14.299Z,9.46
2017-04-04T00:43:18.494Z,9.46
2017-04-04T00:43:22.913Z,9.45
2017-04-04T00:43:27.099Z,9.44
2017-04-04T00:43:31.415Z,9.43
2017-04-04T00:43:35.841Z,9.44
2017-04-04T00:43:40.266Z,9.44
2017-04-04T00:43:44.693Z,9.44
2017-04-04T00:43:49.119Z,9.44
2017-04-04T00:43:53.559Z,9.43
2017-04-04T00:43:57.868Z,9.43
2017-04-04T00:44:02.279Z,9.43
2017-04-04T00:44:06.466Z,9.43
2017-04-04T00:44:10.774Z,9.42
2017-04-04T00:44:15.209Z,9.41
2017-04-04T00:44:19.553Z,9.41
2017-04-04T00:44:23.987Z,9.41
2017-04-04T00:44:28.406Z,9.42
2017-04-04T00:44:32.736Z,9.42
2017-04-04T00:44:37.046Z,9.42
2017-04-04T00:44:41.469Z,9.4
2017-04-04T00:44:45.902Z,9.41
2017-04-04T00:44:50.215Z,9.4
2017-04-04T00:44:54.635Z,9.4
2017-04-04T00:44:59.057Z,9.39
2017-04-04T00:45:03.526Z,9.4
2017-04-04T00:45:07.834Z,9.39
2017-04-04T00:45:12.024Z,9.39
2017-04-04T00:45:16.331Z,9.39
2017-04-04T00:45:20.644Z,9.39
2017-04-04T00:45:24.950Z,9.38
2017-04-04T00:45:29.255Z,9.38
2017-04-04T00:45:33.686Z,9.38
2017-04-04T00:45:38.115Z,9.38
2017-04-04T00:45:42.466Z,9.38
2017-04-04T00:45:46.889Z,9.37
2017-04-04T00:45:51.310Z,9.37
2017-04-04T00:45:55.621Z,9.36
2017-04-04T00:45:59.934Z,9.36
2017-04-04T00:46:04.512Z,9.36
2017-04-04T00:46:08.824Z,9.36
2017-04-04T00:46:13.138Z,9.36
2017-04-04T00:46:17.452Z,9.35
2017-04-04T00:46:21.877Z,9.34
2017-04-04T00:46:26.183Z,9.34
2017-04-04T00:46:30.617Z,9.34
2017-04-04T00:46:35.044Z,9.33
2017-04-04T00:46:39.507Z,9.33
2017-04-04T00:46:43.929Z,9.34
2017-04-04T00:46:48.368Z,9.33
2017-04-04T00:46:52.845Z,9.33
2017-04-04T00:46:57.275Z,9.33
2017-04-04T00:47:01.705Z,9.33
2017-04-04T00:47:06.063Z,9.32
2017-04-04T00:47:10.491Z,9.33
2017-04-04T00:47:14.846Z,9.31
2017-04-04T00:47:19.084Z,9.31
2017-04-04T00:47:23.515Z,9.31
2017-04-04T00:47:27.941Z,9.31
2017-04-04T00:47:32.367Z,9.3
2017-04-04T00:47:36.720Z,9.3
2017-04-04T00:47:41.026Z,9.31
2017-04-04T00:47:45.456Z,9.3
2017-04-04T00:47:49.879Z,9.3
2017-04-04T00:47:54.306Z,9.29
2017-04-04T00:47:58.730Z,9.29
2017-04-04T00:48:03.152Z,9.3
2017-04-04T00:48:07.461Z,9.28
2017-04-04T00:48:11.889Z,9.28
2017-04-04T00:48:16.317Z,9.29
2017-04-04T00:48:20.502Z,9.29
2017-04-04T00:48:24.927Z,9.27
2017-04-04T00:48:29.352Z,9.27
2017-04-04T00:48:33.771Z,9.27
2017-04-04T00:48:38.188Z,9.26
2017-04-04T00:48:42.615Z,9.27
2017-04-04T00:48:47.083Z,9.26
2017-04-04T00:48:51.506Z,9.26
2017-04-04T00:48:55.939Z,9.25
2017-04-04T00:49:00.367Z,9.26
2017-04-04T00:49:04.901Z,9.25
2017-04-04T00:49:09.212Z,9.25
2017-04-04T00:49:13.631Z,9.25
2017-04-04T00:49:17.945Z,9.23
2017-04-04T00:49:22.255Z,9.24
2017-04-04T00:49:26.563Z,9.24
2017-04-04T00:49:30.991Z,9.25
2017-04-04T00:49:35.312Z,9.22
2017-04-04T00:49:39.661Z,9.23
2017-04-04T00:49:44.089Z,9.24
2017-04-04T00:49:48.530Z,9.23
2017-04-04T00:49:52.957Z,9.22
2017-04-04T00:49:57.260Z,9.22
2017-04-04T00:50:01.686Z,9.22
2017-04-04T00:50:06.134Z,9.22
2017-04-04T00:50:10.330Z,9.21
2017-04-04T00:50:14.638Z,9.21
2017-04-04T00:50:18.950Z,9.22
2017-04-04T00:50:23.375Z,9.21
2017-04-04T00:50:27.795Z,9.21
2017-04-04T00:50:32.219Z,9.2
2017-04-04T00:50:36.640Z,9.2
2017-04-04T00:50:41.067Z,9.2
2017-04-04T00:50:45.498Z,9.2
2017-04-04T00:50:49.921Z,9.2
2017-04-04T00:50:54.354Z,9.21
2017-04-04T00:50:58.663Z,9.2
2017-04-04T00:51:02.858Z,9.2
2017-04-04T00:51:07.286Z,9.19
2017-04-04T00:51:11.593Z,9.19
2017-04-04T00:51:15.909Z,9.19
2017-04-04T00:51:20.338Z,9.19
2017-04-04T00:51:24.645Z,9.19
2017-04-04T00:51:29.074Z,9.19
2017-04-04T00:51:33.548Z,9.18
2017-04-04T00:51:37.740Z,9.18
2017-04-04T00:51:42.050Z,9.18
2017-04-04T00:51:46.399Z,9.18
2017-04-04T00:51:50.830Z,9.17
2017-04-04T00:51:55.257Z,9.17
2017-04-04T00:51:59.565Z,9.17
2017-04-04T00:52:03.758Z,9.17
2017-04-04T00:52:07.955Z,9.16
2017-04-04T00:52:12.382Z,9.17
2017-04-04T00:52:16.692Z,9.15
2017-04-04T00:52:21.127Z,9.16
2017-04-04T00:52:25.431Z,9.15
2017-04-04T00:52:29.854Z,9.15
2017-04-04T00:52:34.285Z,9.15
2017-04-04T00:52:38.714Z,9.16
2017-04-04T00:52:43.136Z,9.15
2017-04-04T00:52:47.557Z,9.15
2017-04-04T00:52:51.866Z,9.14
2017-04-04T00:52:56.327Z,9.14
2017-04-04T00:53:00.753Z,9.14
2017-04-04T00:53:05.377Z,9.14
2017-04-04T00:53:09.806Z,9.14
2017-04-04T00:53:14.112Z,9.14
2017-04-04T00:53:18.423Z,9.13
2017-04-04T00:53:22.863Z,9.13
2017-04-04T00:53:27.282Z,9.12
2017-04-04T00:53:31.701Z,9.13
2017-04-04T00:53:36.010Z,9.11
2017-04-04T00:53:40.325Z,9.12
2017-04-04T00:53:44.754Z,9.11
2017-04-04T00:53:49.181Z,9.12
2017-04-04T00:53:53.619Z,9.11
2017-04-04T00:53:58.042Z,9.11
2017-04-04T00:54:02.535Z,9.11
2017-04-04T00:54:06.962Z,9.11
2017-04-04T00:54:11.393Z,9.11
2017-04-04T00:54:15.815Z,9.1
2017-04-04T00:54:20.126Z,9.1
2017-04-04T00:54:24.562Z,9.1
2017-04-04T00:54:28.982Z,9.1
2017-04-04T00:54:33.405Z,9.1
2017-04-04T00:54:37.826Z,9.1
2017-04-04T00:54:42.181Z,9.1
2017-04-04T00:54:46.621Z,9.09
2017-04-04T00:54:51.043Z,9.09
2017-04-04T00:54:55.361Z,9.09
2017-04-04T00:54:59.819Z,9.09
2017-04-04T00:55:04.248Z,9.09
2017-04-04T00:55:08.674Z,9.09
2017-04-04T00:55:12.986Z,9.08
2017-04-04T00:55:17.457Z,9.09
2017-04-04T00:55:21.646Z,9.08
2017-04-04T00:55:26.082Z,9.08
2017-04-04T00:55:30.507Z,9.08
2017-04-04T00:55:34.935Z,9.08
2017-04-04T00:55:39.364Z,9.07
2017-04-04T00:55:43.670Z,9.07
2017-04-04T00:55:48.104Z,9.07
2017-04-04T00:55:52.584Z,9.08
2017-04-04T00:55:56.771Z,9.07
2017-04-04T00:56:01.195Z,9.07
2017-04-04T00:56:05.620Z,9.07
2017-04-04T00:56:09.699Z,9.07
2017-04-04T00:56:14.124Z,9.07
2017-04-04T00:56:18.315Z,9.07
2017-04-04T00:56:22.741Z,9.07
2017-04-04T00:56:27.166Z,9.07
2017-04-04T00:56:31.640Z,9.06
2017-04-04T00:56:35.947Z,9.07
2017-04-04T00:56:40.368Z,9.06
2017-04-04T00:56:44.792Z,9.06
2017-04-04T00:56:49.103Z,9.06
2017-04-04T00:56:53.540Z,9.06
2017-04-04T00:56:57.963Z,9.06
2017-04-04T00:57:02.395Z,9.06
2017-04-04T00:57:06.746Z,9.06
2017-04-04T00:57:11.173Z,9.06
2017-04-04T00:57:15.604Z,9.05
2017-04-04T00:57:19.915Z,9.05
2017-04-04T00:57:24.228Z,9.05
2017-04-04T00:57:28.653Z,9.06
2017-04-04T00:57:33.076Z,9.05
2017-04-04T00:57:37.505Z,9.05
2017-04-04T00:57:41.814Z,9.05
2017-04-04T00:57:46.237Z,9.05
2017-04-04T00:57:50.663Z,9.04
2017-04-04T00:57:54.870Z,9.04
2017-04-04T00:57:59.296Z,9.04
2017-04-04T00:58:04.026Z,9.04
2017-04-04T00:58:08.225Z,9.04
2017-04-04T00:58:12.650Z,9.04
2017-04-04T00:58:16.963Z,9.04
2017-04-04T00:58:21.151Z,9.04
2017-04-04T00:58:25.456Z,9.04
2017-04-04T00:58:29.883Z,9.04
2017-04-04T00:58:34.303Z,9.04